Time;durP1;ratioP1;P1;durP2;ratioP2;P2;SDS_P1;SDS_P2;PMS_P1;PMS_P2;Temp;Humidity;BMP_temperature;BMP_pressure;BME280_temperature;BME280_humidity;BME280_pressure;Samples;Min_cycle;Max_cycle;Signal;HPM_P1;HPM_P2
2021/12/01 00:00:41;;;;;;;1.75;1.50;;;;;;;-0.68;75.98;95738.81;5156554;27;20043;-63
2021/12/01 00:03:06;;;;;;;1.60;1.50;;;;;;;-0.73;75.53;95731.78;5155921;27;20043;-64
2021/12/01 00:05:33;;;;;;;1.70;1.60;;;;;;;-0.72;74.94;95743.75;5155719;27;20174;-62
2021/12/01 00:08:00;;;;;;;3.30;1.70;;;;;;;-0.88;75.71;95746.53;5156067;27;20046;-65
2021/12/01 00:10:27;;;;;;;2.25;1.70;;;;;;;-0.93;75.95;95748.06;5156338;27;20087;-63
2021/12/01 00:12:53;;;;;;;2.08;1.60;;;;;;;-0.95;76.27;95741.56;5156304;27;20038;-63
2021/12/01 00:15:19;;;;;;;3.63;1.95;;;;;;;-0.90;75.56;95751.22;5137444;27;20240;-63
2021/12/01 00:17:46;;;;;;;2.33;1.50;;;;;;;-0.89;75.74;95752.78;5155913;27;20415;-63
2021/12/01 00:20:14;;;;;;;1.88;1.60;;;;;;;-0.90;75.54;95749.41;5156139;27;20050;-62
2021/12/01 00:22:40;;;;;;;1.55;1.45;;;;;;;-0.87;75.04;95759.28;5156023;27;20049;-63
2021/12/01 00:25:08;;;;;;;1.98;1.42;;;;;;;-0.92;75.54;95759.25;5156054;27;20042;-62
2021/12/01 00:27:34;;;;;;;2.80;1.83;;;;;;;-0.93;75.31;95765.50;5154843;27;20038;-63
2021/12/01 00:30:00;;;;;;;2.60;2.30;;;;;;;-1.02;75.14;95767.78;5154467;27;20419;-64
2021/12/01 00:32:27;;;;;;;2.50;1.58;;;;;;;-0.96;75.87;95776.41;5155862;27;20042;-64
2021/12/01 00:34:53;;;;;;;1.85;1.52;;;;;;;-0.95;75.86;95768.34;5154298;27;20041;-63
2021/12/01 00:37:19;;;;;;;3.13;1.85;;;;;;;-0.99;75.21;95763.91;5154327;27;20038;-62
2021/12/01 00:39:46;;;;;;;2.72;1.63;;;;;;;-1.10;74.89;95765.66;5154704;27;20133;-62
2021/12/01 00:42:12;;;;;;;2.22;1.63;;;;;;;-1.16;76.03;95766.66;5154076;27;20038;-63
2021/12/01 00:44:45;;;;;;;1.85;1.65;;;;;;;-1.11;76.21;95773.72;5155570;27;20047;-63
2021/12/01 00:47:12;;;;;;;1.40;1.30;;;;;;;-1.14;75.56;95775.00;5155310;27;20507;-62
2021/12/01 00:49:38;;;;;;;3.85;1.80;;;;;;;-1.10;76.10;95777.88;5155576;27;20066;-62
2021/12/01 00:52:04;;;;;;;2.33;1.70;;;;;;;-1.09;76.31;95782.81;5155235;27;20125;-63
2021/12/01 00:54:30;;;;;;;2.08;1.83;;;;;;;-1.04;75.96;95777.66;5155317;27;20180;-63
2021/12/01 00:56:56;;;;;;;2.58;1.40;;;;;;;-1.09;75.50;95782.03;5155191;27;20125;-64
2021/12/01 00:59:22;;;;;;;2.90;1.80;;;;;;;-1.01;75.98;95784.16;5155193;27;20126;-63
2021/12/01 01:01:48;;;;;;;2.95;1.92;;;;;;;-1.03;75.61;95786.22;5153696;27;20065;-64
2021/12/01 01:04:14;;;;;;;2.42;1.70;;;;;;;-1.01;75.94;95787.53;5155144;27;20049;-64
2021/12/01 01:06:42;;;;;;;2.15;1.58;;;;;;;-1.00;75.73;95780.53;5155131;27;20042;-64
2021/12/01 01:09:08;;;;;;;2.30;1.58;;;;;;;-0.99;75.25;95784.72;5154998;27;20048;-64
2021/12/01 01:17:12;;;;;;;2.67;1.60;;;;;;;-1.17;75.27;95801.50;5154721;27;20051;-64
2021/12/01 01:19:39;;;;;;;1.65;1.55;;;;;;;-1.16;75.30;95793.44;5154898;27;20046;-64
2021/12/01 01:22:07;;;;;;;4.55;1.90;;;;;;;-1.15;75.49;95805.41;5153583;27;20038;-64
2021/12/01 01:24:33;;;;;;;1.60;1.50;;;;;;;-1.18;75.29;95789.53;5153428;27;20046;-63
2021/12/01 01:27:00;;;;;;;2.65;1.63;;;;;;;-1.29;75.25;95800.91;5154562;27;20633;-65
2021/12/01 01:29:26;;;;;;;3.85;1.58;;;;;;;-1.28;74.68;95792.84;5154556;27;20098;-63
2021/12/01 01:31:57;;;;;;;2.10;1.60;;;;;;;-1.35;74.60;95796.69;5154320;27;20404;-63
2021/12/01 01:34:24;;;;;;;1.85;1.55;;;;;;;-1.26;75.50;95795.22;5154522;27;20054;-62
2021/12/01 01:36:50;;;;;;;4.55;2.60;;;;;;;-1.26;75.29;95797.81;5153114;27;20055;-63
2021/12/01 01:39:17;;;;;;;2.38;2.00;;;;;;;-1.26;74.56;95798.59;5154506;27;20042;-64
2021/12/01 01:41:43;;;;;;;2.17;1.50;;;;;;;-1.26;74.77;95797.81;5154155;27;20392;-63
2021/12/01 01:44:10;;;;;;;1.85;1.67;;;;;;;-1.26;75.39;95787.41;5154148;27;20050;-64
2021/12/01 01:46:37;;;;;;;2.50;1.55;;;;;;;-1.28;74.91;95803.22;5118462;27;20087;-64
2021/12/01 01:51:57;;;;;;;2.78;1.88;;;;;;;-1.26;75.00;95814.19;5154078;27;20043;-65
2021/12/01 01:54:23;;;;;;;2.58;1.67;;;;;;;-1.29;75.25;95806.88;5154188;27;20118;-64
2021/12/01 01:56:48;;;;;;;2.17;1.80;;;;;;;-1.24;75.63;95809.50;5152689;27;20502;-64
2021/12/01 01:59:14;;;;;;;2.40;1.60;;;;;;;-1.26;74.86;95811.56;5154158;27;20077;-64
2021/12/01 02:01:46;;;;;;;2.42;1.65;;;;;;;-1.27;74.88;95819.59;5152521;27;20496;-64
2021/12/01 02:04:15;;;;;;;3.47;1.88;;;;;;;-1.24;75.47;95816.50;5153851;27;20516;-64
2021/12/01 02:06:43;;;;;;;1.63;1.50;;;;;;;-1.18;75.88;95815.50;5154051;27;20056;-63
2021/12/01 02:09:09;;;;;;;2.83;1.73;;;;;;;-1.15;74.94;95822.81;5153634;27;20564;-64
2021/12/01 02:11:35;;;;;;;2.05;1.70;;;;;;;-1.19;74.71;95819.16;5152314;27;20062;-63
2021/12/01 02:14:01;;;;;;;2.45;1.50;;;;;;;-1.19;74.65;95817.31;5153462;27;20430;-64
2021/12/01 02:16:27;;;;;;;11.98;5.05;;;;;;;-1.12;75.36;95814.50;5153382;27;20042;-64
2021/12/01 02:18:54;;;;;;;2.40;1.70;;;;;;;-1.09;74.62;95823.63;5152196;27;20380;-63
2021/12/01 02:21:27;;;;;;;2.60;1.80;;;;;;;-1.14;74.27;95824.38;5152543;27;20073;-65
2021/12/01 02:23:58;;;;;;;3.13;1.70;;;;;;;-1.23;74.40;95818.88;5153652;27;20522;-64
2021/12/01 02:26:25;;;;;;;4.65;1.98;;;;;;;-1.26;74.73;95823.78;5153347;27;20039;-63
2021/12/01 02:28:54;;;;;;;2.70;1.67;;;;;;;-1.23;74.85;95826.66;5153527;27;20043;-65
2021/12/01 02:31:22;;;;;;;1.90;1.65;;;;;;;-1.26;74.52;95839.38;5153317;27;20061;-64
2021/12/01 02:33:48;;;;;;;3.70;2.47;;;;;;;-1.18;75.00;95844.09;5152102;27;20042;-64
2021/12/01 02:36:14;;;;;;;2.30;1.80;;;;;;;-1.16;75.13;95842.03;5152048;27;20135;-64
2021/12/01 02:38:44;;;;;;;2.88;1.80;;;;;;;-1.16;75.12;95844.63;5152052;27;20507;-63
2021/12/01 02:41:11;;;;;;;2.05;1.58;;;;;;;-1.20;75.07;95840.97;5153110;27;20042;-63
2021/12/01 02:43:38;;;;;;;2.50;1.52;;;;;;;-1.16;74.65;95837.63;5151773;27;20039;-64
2021/12/01 02:46:04;;;;;;;4.20;1.92;;;;;;;-1.13;74.39;95844.13;5151874;27;20031;-63
2021/12/01 02:48:30;;;;;;;3.35;1.60;;;;;;;-1.17;74.93;95838.66;5153050;27;20131;-65
2021/12/01 02:50:58;;;;;;;3.15;1.70;;;;;;;-1.14;75.25;95845.19;5151749;27;20035;-61
2021/12/01 02:53:25;;;;;;;2.75;1.58;;;;;;;-1.11;74.64;95851.69;5151700;27;20064;-64
2021/12/01 02:55:59;;;;;;;1.85;1.48;;;;;;;-1.13;74.38;95856.34;5153424;27;20062;-63
2021/12/01 02:58:27;;;;;;;2.30;1.70;;;;;;;-1.03;74.63;95852.03;5152901;27;20560;-62
2021/12/01 03:00:56;;;;;;;2.42;1.77;;;;;;;-1.06;74.30;95852.53;5153395;27;20042;-62
2021/12/01 03:03:23;;;;;;;2.97;1.83;;;;;;;-1.09;74.61;95865.22;5156796;27;20047;-63
2021/12/01 03:05:50;;;;;;;2.78;1.80;;;;;;;-1.03;74.35;95851.22;5156232;27;20045;-63
2021/12/01 03:08:17;;;;;;;3.08;1.70;;;;;;;-1.10;74.27;95859.22;5157467;27;20062;-63
2021/12/01 03:10:50;;;;;;;2.05;1.60;;;;;;;-1.13;73.83;95856.34;5138357;27;20047;-64
2021/12/01 03:13:18;;;;;;;3.40;1.90;;;;;;;-1.10;74.18;95853.25;5157339;27;20034;-62
2021/12/01 03:15:44;;;;;;;2.30;1.70;;;;;;;-1.12;74.00;95856.09;5138634;27;20503;-63
2021/12/01 03:18:10;;;;;;;2.50;1.88;;;;;;;-1.15;75.00;95860.00;5157014;27;20055;-64
2021/12/01 03:20:37;;;;;;;3.60;1.83;;;;;;;-1.18;74.01;95865.69;5157109;27;20042;-64
2021/12/01 03:23:03;;;;;;;3.25;1.63;;;;;;;-1.22;73.99;95861.22;5121071;27;20531;-64
2021/12/01 03:25:29;;;;;;;2.33;1.80;;;;;;;-1.21;73.81;95871.34;5155767;27;20047;-64
2021/12/01 03:27:57;;;;;;;1.95;1.70;;;;;;;-1.22;74.97;95869.81;5155545;27;20046;-64
2021/12/01 03:30:23;;;;;;;4.25;2.05;;;;;;;-1.20;74.59;95875.53;5156604;27;20062;-63
2021/12/01 03:32:51;;;;;;;3.25;2.00;;;;;;;-1.25;74.22;95872.91;5157021;27;20521;-63
2021/12/01 03:35:16;;;;;;;3.58;1.90;;;;;;;-1.24;75.09;95871.06;5156888;27;20095;-63
2021/12/01 03:37:45;;;;;;;4.15;1.80;;;;;;;-1.37;74.63;95877.47;5155694;27;20031;-63
2021/12/01 03:40:13;;;;;;;3.88;2.50;;;;;;;-1.37;74.24;95882.69;5156944;27;20043;-65
2021/12/01 03:42:39;;;;;;;2.22;1.80;;;;;;;-1.38;74.99;95886.31;5156531;27;20035;-63
2021/12/01 03:45:06;;;;;;;2.03;1.60;;;;;;;-1.35;74.80;95878.03;5155353;27;20174;-64
2021/12/01 03:47:32;;;;;;;2.15;1.88;;;;;;;-1.32;74.79;95874.13;5156510;27;20037;-62
2021/12/01 03:49:59;;;;;;;4.00;2.15;;;;;;;-1.34;74.26;95876.22;5156650;27;20507;-64
2021/12/01 03:52:25;;;;;;;1.65;1.50;;;;;;;-1.34;74.05;95871.78;5155048;27;20115;-63
2021/12/01 03:54:51;;;;;;;6.65;2.30;;;;;;;-1.33;75.11;95875.16;5155173;27;20084;-63
2021/12/01 03:57:18;;;;;;;2.35;1.77;;;;;;;-1.37;74.26;95880.84;5155009;27;20565;-63
2021/12/01 03:59:44;;;;;;;2.13;1.50;;;;;;;-1.43;74.36;95879.25;5155052;27;20125;-63
2021/12/01 04:02:10;;;;;;;2.47;2.00;;;;;;;-1.45;75.18;95872.72;5156603;27;20043;-63
2021/12/01 04:04:36;;;;;;;2.80;2.08;;;;;;;-1.41;75.74;95873.81;5156195;27;20050;-63
2021/12/01 04:07:02;;;;;;;3.45;2.25;;;;;;;-1.34;74.76;95871.00;5137509;27;20034;-63
2021/12/01 04:09:29;;;;;;;4.63;2.00;;;;;;;-1.39;74.08;95871.75;5154775;27;20129;-63
2021/12/01 04:11:55;;;;;;;2.83;2.00;;;;;;;-1.37;74.59;95873.06;5154757;27;20538;-64
2021/12/01 04:14:21;;;;;;;3.58;2.10;;;;;;;-1.35;74.63;95878.03;5155921;27;20074;-64
2021/12/01 04:16:47;;;;;;;7.35;1.85;;;;;;;-1.41;74.48;95879.78;5137605;27;20114;-65
2021/12/01 04:19:13;;;;;;;3.28;1.85;;;;;;;-1.35;74.03;95878.03;5154774;27;20046;-64
2021/12/01 04:21:39;;;;;;;2.50;1.73;;;;;;;-1.40;74.45;95891.75;5155745;27;20393;-64
2021/12/01 04:24:06;;;;;;;2.97;2.00;;;;;;;-1.35;74.30;95885.81;5154469;27;20056;-63
2021/12/01 04:26:33;;;;;;;3.72;2.10;;;;;;;-1.31;74.01;95884.28;5154364;27;20487;-64
2021/12/01 04:29:00;;;;;;;2.30;2.10;;;;;;;-1.29;74.06;95891.84;5155969;27;20060;-64
2021/12/01 04:31:28;;;;;;;2.72;2.00;;;;;;;-1.27;73.78;95895.75;5154099;27;20050;-63
2021/12/01 04:33:55;;;;;;;3.10;2.30;;;;;;;-1.25;73.97;95900.69;5155569;27;20050;-63
2021/12/01 04:36:27;;;;;;;3.50;2.50;;;;;;;-1.25;74.23;95900.69;5154168;27;20039;-64
2021/12/01 04:38:53;;;;;;;4.07;2.22;;;;;;;-1.25;74.41;95895.50;5154222;27;20443;-63
2021/12/01 04:41:21;;;;;;;4.10;2.30;;;;;;;-1.31;73.79;95897.28;5155213;27;20117;-65
2021/12/01 04:43:47;;;;;;;4.03;2.13;;;;;;;-1.29;73.83;95900.41;5155203;27;20042;-63
2021/12/01 04:46:19;;;;;;;3.40;2.22;;;;;;;-1.24;73.77;95902.25;5153858;27;20042;-64
2021/12/01 04:48:46;;;;;;;4.13;2.00;;;;;;;-1.21;74.16;95907.75;5155453;27;20038;-64
2021/12/01 04:51:13;;;;;;;3.28;2.30;;;;;;;-1.31;74.28;95904.28;5155070;27;20077;-65
2021/12/01 04:53:38;;;;;;;4.57;2.22;;;;;;;-1.23;74.99;95912.41;5155297;27;20377;-63
2021/12/01 04:56:05;;;;;;;6.03;1.95;;;;;;;-1.23;73.72;95909.03;5155027;27;20034;-64
2021/12/01 04:58:33;;;;;;;2.63;2.17;;;;;;;-1.12;74.89;95907.28;5154814;27;20134;-63
2021/12/01 05:00:59;;;;;;;4.60;2.00;;;;;;;-1.10;73.73;95910.44;5153581;27;20560;-64
2021/12/01 05:03:25;;;;;;;3.22;2.08;;;;;;;-1.13;74.27;95922.09;5153479;27;20239;-64
2021/12/01 05:05:52;;;;;;;2.28;2.00;;;;;;;-1.18;73.43;95920.28;5155205;27;20122;-64
2021/12/01 05:08:20;;;;;;;3.55;2.13;;;;;;;-1.16;74.67;95925.97;5154866;27;20046;-64
2021/12/01 05:10:46;;;;;;;3.85;2.20;;;;;;;-1.21;74.31;95919.97;5153347;27;20420;-64
2021/12/01 05:13:12;;;;;;;9.88;4.13;;;;;;;-1.18;77.15;95922.88;5153362;27;20066;-65
2021/12/01 05:15:38;;;;;;;4.53;2.30;;;;;;;-1.07;75.09;95925.53;5154925;27;20545;-65
2021/12/01 05:18:04;;;;;;;3.33;2.35;;;;;;;-1.15;73.61;95926.75;5153613;27;20063;-65
2021/12/01 05:20:30;;;;;;;3.53;2.55;;;;;;;-1.16;74.45;95935.59;5154803;27;20492;-64
2021/12/01 05:22:56;;;;;;;5.15;2.80;;;;;;;-1.18;73.97;95938.47;5154545;27;20146;-64
2021/12/01 05:25:22;;;;;;;3.65;2.70;;;;;;;-1.10;75.26;95939.81;5154104;27;20054;-63
2021/12/01 05:27:47;;;;;;;6.60;2.50;;;;;;;-1.13;74.23;95950.69;5135764;27;20076;-64
2021/12/01 05:30:14;;;;;;;6.28;2.50;;;;;;;-1.22;74.84;95952.97;5148451;27;20372;-62
2021/12/01 05:32:39;;;;;;;3.33;2.60;;;;;;;-1.21;75.23;95959.72;5152378;27;20050;-63
2021/12/01 05:35:06;;;;;;;3.42;2.53;;;;;;;-1.19;74.55;95955.06;5152070;27;20092;-63
2021/12/01 05:37:31;;;;;;;4.90;2.83;;;;;;;-1.12;75.85;95965.25;5151830;27;20039;-64
2021/12/01 05:39:57;;;;;;;4.57;2.50;;;;;;;-1.09;75.31;95963.97;5152881;27;20045;-64
2021/12/01 05:42:23;;;;;;;4.43;2.42;;;;;;;-1.04;74.98;95972.59;5151058;27;20127;-64
2021/12/01 05:44:49;;;;;;;3.13;2.38;;;;;;;-1.13;74.65;95968.91;5150672;27;20057;-63
2021/12/01 05:47:15;;;;;;;4.97;2.63;;;;;;;-1.08;75.05;95971.53;5151571;27;20065;-63
2021/12/01 05:49:44;;;;;;;5.15;2.50;;;;;;;-1.05;75.27;95978.84;5151453;27;20073;-63
2021/12/01 05:52:12;;;;;;;4.43;2.60;;;;;;;-1.12;73.55;95972.28;5151142;27;20038;-65
2021/12/01 05:54:39;;;;;;;3.50;2.28;;;;;;;-1.16;74.03;95975.38;5152038;27;20051;-66
2021/12/01 05:57:05;;;;;;;3.63;2.10;;;;;;;-1.23;74.38;95977.38;5148269;27;20043;-64
2021/12/01 05:59:31;;;;;;;4.68;2.38;;;;;;;-1.15;74.41;95979.56;5148239;27;20122;-64
2021/12/01 06:01:56;;;;;;;4.53;2.78;;;;;;;-1.20;73.59;95979.50;5149633;27;20575;-64
2021/12/01 06:04:25;;;;;;;4.43;2.10;;;;;;;-1.14;74.36;95977.72;5150638;27;20046;-63
2021/12/01 06:06:51;;;;;;;4.15;2.53;;;;;;;-1.13;74.22;95981.09;5147961;27;20144;-65
2021/12/01 06:09:17;;;;;;;3.58;2.42;;;;;;;-1.18;74.00;95992.22;5150421;27;20073;-66
2021/12/01 06:11:47;;;;;;;7.03;2.63;;;;;;;-1.23;74.24;95998.19;5131416;27;20066;-64
2021/12/01 06:14:14;;;;;;;2.70;2.30;;;;;;;-1.19;73.40;95991.44;5131452;27;20467;-65
2021/12/01 06:16:40;;;;;;;3.88;2.30;;;;;;;-1.13;74.23;95997.47;5150572;27;20833;-63
2021/12/01 06:19:06;;;;;;;3.58;2.45;;;;;;;-1.13;74.52;95994.09;5152462;27;20110;-63
2021/12/01 06:21:32;;;;;;;3.25;2.03;;;;;;;-1.09;74.73;96000.38;5151369;27;20534;-63
2021/12/01 06:23:57;;;;;;;3.03;2.30;;;;;;;-1.14;73.07;95998.53;5152349;27;20121;-65
2021/12/01 06:26:23;;;;;;;3.90;2.72;;;;;;;-1.25;73.25;96005.44;5151344;27;20042;-64
2021/12/01 06:28:50;;;;;;;4.07;2.47;;;;;;;-1.18;74.10;96000.03;5150488;27;20050;-66
2021/12/01 06:31:16;;;;;;;3.47;2.83;;;;;;;-1.28;73.22;96003.31;5150645;27;20038;-65
2021/12/01 06:33:41;;;;;;;3.05;2.13;;;;;;;-1.24;73.53;96006.22;5131900;27;20038;-64
2021/12/01 06:36:08;;;;;;;4.18;2.17;;;;;;;-1.18;73.25;96010.41;5148147;27;20046;-63
2021/12/01 06:38:34;;;;;;;6.05;3.13;;;;;;;-1.17;73.96;96023.19;5150171;27;20041;-63
2021/12/01 06:41:00;;;;;;;4.13;2.40;;;;;;;-1.08;73.90;96015.72;5149215;27;20123;-63
2021/12/01 06:43:25;;;;;;;2.78;2.30;;;;;;;-1.03;73.90;96013.19;5148022;27;20038;-64
2021/12/01 06:45:51;;;;;;;2.95;2.22;;;;;;;-0.95;73.05;96017.91;5150805;27;20038;-64
2021/12/01 06:48:17;;;;;;;5.40;2.58;;;;;;;-0.95;72.66;96020.53;5142077;27;20058;-63
2021/12/01 06:50:43;;;;;;;5.13;2.45;;;;;;;-0.98;72.89;96022.84;5149076;27;20051;-63
2021/12/01 06:53:09;;;;;;;3.30;2.38;;;;;;;-0.91;73.45;96026.03;5151880;27;20039;-62
2021/12/01 06:55:35;;;;;;;4.07;2.40;;;;;;;-0.88;73.37;96030.75;5150311;27;20039;-63
2021/12/01 06:58:01;;;;;;;4.05;2.70;;;;;;;-0.78;72.30;96035.25;5150527;27;20389;-65
2021/12/01 07:00:27;;;;;;;3.88;2.50;;;;;;;-0.83;72.20;96046.38;5149858;27;20066;-66
2021/12/01 07:02:53;;;;;;;5.15;2.40;;;;;;;-0.81;72.62;96044.31;5148827;27;20491;-65
2021/12/01 07:05:19;;;;;;;3.00;2.28;;;;;;;-0.83;71.37;96048.19;5147751;27;20074;-66
2021/12/01 07:07:44;;;;;;;3.92;2.35;;;;;;;-0.93;72.22;96061.91;5147736;27;20103;-66
2021/12/01 07:10:12;;;;;;;3.20;2.47;;;;;;;-1.10;71.75;96058.59;5147855;27;20051;-64
2021/12/01 07:12:38;;;;;;;6.85;2.83;;;;;;;-1.00;72.25;96058.69;5146429;27;20501;-65
2021/12/01 07:15:05;;;;;;;4.05;2.40;;;;;;;-0.97;71.95;96066.81;5149107;27;20038;-64
2021/12/01 07:17:31;;;;;;;3.33;2.40;;;;;;;-0.87;72.56;96063.50;5151141;27;20627;-64
2021/12/01 07:19:57;;;;;;;3.88;2.40;;;;;;;-0.84;71.25;96063.00;5150434;27;20134;-66
2021/12/01 07:22:22;;;;;;;3.53;2.65;;;;;;;-0.84;72.49;96063.00;5130020;27;20037;-68
2021/12/01 07:24:48;;;;;;;5.43;2.60;;;;;;;-0.66;71.37;96072.28;5150303;27;20043;-66
2021/12/01 07:27:15;;;;;;;5.68;2.35;;;;;;;-0.64;71.00;96066.84;5150637;27;20200;-65
2021/12/01 07:29:42;;;;;;;4.80;2.70;;;;;;;-0.62;72.75;96070.75;5150067;27;20516;-64
2021/12/01 07:32:09;;;;;;;5.22;2.28;;;;;;;-0.61;71.89;96074.16;5148171;27;20091;-65
2021/12/01 07:34:41;;;;;;;5.35;2.55;;;;;;;-0.61;71.80;96074.16;5149202;27;20544;-65
2021/12/01 07:37:11;;;;;;;3.42;2.38;;;;;;;-0.66;71.25;96084.50;5148520;27;20042;-63
2021/12/01 07:39:37;;;;;;;5.50;2.33;;;;;;;-0.61;71.62;96094.97;5148282;27;20051;-63
2021/12/01 07:42:04;;;;;;;3.05;2.65;;;;;;;-0.57;71.26;96086.41;5149841;27;20182;-65
2021/12/01 07:44:30;;;;;;;4.78;2.40;;;;;;;-0.60;71.01;96096.53;5149506;27;20137;-63
2021/12/01 07:46:56;;;;;;;3.90;2.55;;;;;;;-0.73;71.34;96090.69;5148505;27;20122;-66
2021/12/01 07:49:22;;;;;;;4.10;2.47;;;;;;;-0.58;71.85;96112.69;5151879;27;20050;-66
2021/12/01 07:51:48;;;;;;;5.80;3.30;;;;;;;-0.65;70.49;96110.25;5153078;27;20031;-66
2021/12/01 07:54:14;;;;;;;4.25;2.80;;;;;;;-0.49;71.25;96111.97;5152459;27;20053;-65
2021/12/01 07:56:40;;;;;;;4.20;2.90;;;;;;;-0.60;70.04;96112.91;5133196;27;20137;-66
2021/12/01 07:59:05;;;;;;;5.32;3.08;;;;;;;-0.69;71.34;96117.78;5153385;27;20106;-64
2021/12/01 08:01:31;;;;;;;3.45;2.75;;;;;;;-0.73;71.77;96108.91;5152669;27;20058;-65
2021/12/01 08:03:57;;;;;;;6.18;3.03;;;;;;;-0.76;71.70;96117.19;5152326;27;20047;-67
2021/12/01 08:06:23;;;;;;;3.97;3.08;;;;;;;-0.70;72.08;96115.44;5149092;27;20401;-69
2021/12/01 08:08:49;;;;;;;3.90;2.70;;;;;;;-0.78;70.99;96121.06;5151477;27;20126;-70
2021/12/01 08:11:15;;;;;;;5.82;2.80;;;;;;;-0.82;70.95;96117.41;5132136;27;20141;-68
2021/12/01 08:13:40;;;;;;;5.80;3.00;;;;;;;-0.78;71.56;96116.66;5150697;27;20119;-66
2021/12/01 08:16:06;;;;;;;4.65;2.35;;;;;;;-0.69;70.88;96109.19;5152997;27;20043;-65
2021/12/01 08:18:33;;;;;;;3.55;2.30;;;;;;;-0.50;71.11;96125.22;5151941;27;20149;-66
2021/12/01 08:20:59;;;;;;;4.53;2.83;;;;;;;-0.34;70.91;96124.34;5133573;27;20126;-67
2021/12/01 08:23:24;;;;;;;4.50;2.55;;;;;;;-0.31;70.36;96123.84;5152797;27;20046;-68
2021/12/01 08:25:50;;;;;;;4.00;2.80;;;;;;;-0.24;70.53;96128.84;5154545;27;20095;-68
2021/12/01 08:28:16;;;;;;;4.25;2.45;;;;;;;-0.42;69.96;96139.63;5152832;27;20035;-69
2021/12/01 08:30:42;;;;;;;5.32;2.90;;;;;;;-0.37;71.21;96143.06;5151337;27;20069;-68
2021/12/01 08:33:08;;;;;;;3.95;2.78;;;;;;;-0.29;70.41;96144.44;5154921;27;20121;-68
2021/12/01 08:35:34;;;;;;;5.38;2.60;;;;;;;-0.25;70.89;96145.50;5151622;27;20050;-69
2021/12/01 08:38:00;;;;;;;5.75;2.90;;;;;;;-0.29;69.42;96140.00;5153040;27;20046;-69
2021/12/01 08:40:28;;;;;;;4.60;3.30;;;;;;;-0.49;71.08;96147.63;5152811;27;20043;-69
2021/12/01 08:42:53;;;;;;;5.53;3.28;;;;;;;-0.45;71.27;96138.28;5153076;27;20043;-67
2021/12/01 08:45:19;;;;;;;3.63;2.90;;;;;;;-0.32;70.56;96150.13;5153571;27;20516;-67
2021/12/01 08:47:45;;;;;;;4.07;2.60;;;;;;;-0.41;70.24;96149.78;5151807;27;20030;-69
2021/12/01 08:50:12;;;;;;;4.95;2.85;;;;;;;-0.49;70.73;96148.41;5153044;27;20043;-66
2021/12/01 08:52:38;;;;;;;4.00;2.80;;;;;;;-0.31;71.32;96157.69;5153171;27;20039;-67
2021/12/01 08:55:05;;;;;;;7.93;3.38;;;;;;;-0.19;71.85;96146.31;5134671;27;20045;-68
2021/12/01 08:57:31;;;;;;;4.63;3.00;;;;;;;-0.10;70.48;96147.44;5153214;27;20479;-68
2021/12/01 08:59:56;;;;;;;5.78;3.20;;;;;;;-0.01;70.48;96148.56;5152718;27;20106;-70
2021/12/01 09:02:22;;;;;;;4.50;3.13;;;;;;;0.00;70.31;96152.75;5153692;27;20047;-68
2021/12/01 09:04:50;;;;;;;6.30;3.00;;;;;;;0.06;70.40;96150.94;5151130;27;20039;-67
2021/12/01 09:07:20;;;;;;;3.13;2.40;;;;;;;0.01;70.42;96156.91;5152443;27;20300;-69
2021/12/01 09:09:46;;;;;;;4.25;2.75;;;;;;;0.08;70.44;96154.88;5151706;27;20169;-64
2021/12/01 09:12:14;;;;;;;3.55;2.78;;;;;;;-0.06;68.90;96157.13;5152299;27;20039;-65
2021/12/01 09:14:41;;;;;;;5.30;2.92;;;;;;;-0.27;69.49;96158.75;5153420;27;20126;-67
2021/12/01 09:17:09;;;;;;;3.25;2.50;;;;;;;-0.25;69.91;96156.69;5153486;27;20042;-66
2021/12/01 09:19:36;;;;;;;5.03;2.83;;;;;;;-0.18;69.95;96166.09;5151897;27;20106;-68
2021/12/01 09:22:01;;;;;;;4.28;2.70;;;;;;;-0.15;69.61;96169.00;5153971;27;20045;-69
2021/12/01 09:24:27;;;;;;;4.90;2.55;;;;;;;-0.08;70.52;96172.19;5151587;27;20051;-67
2021/12/01 09:26:53;;;;;;;3.75;2.53;;;;;;;0.04;70.49;96166.81;5151926;27;20039;-68
2021/12/01 09:29:19;;;;;;;4.97;2.92;;;;;;;0.03;69.03;96173.06;5153191;27;20416;-68
2021/12/01 09:31:45;;;;;;;4.47;3.00;;;;;;;-0.02;70.54;96168.59;5153052;27;20055;-69
2021/12/01 09:34:11;;;;;;;6.00;2.53;;;;;;;0.07;69.81;96176.75;5152417;27;20454;-68
2021/12/01 09:36:37;;;;;;;4.47;2.85;;;;;;;0.11;69.82;96177.03;5151472;27;20050;-68
2021/12/01 09:39:04;;;;;;;4.82;2.80;;;;;;;0.03;70.32;96178.28;5151507;27;20050;-69
2021/12/01 09:41:30;;;;;;;6.30;2.70;;;;;;;-0.08;69.99;96185.22;5150254;27;20047;-66
2021/12/01 09:43:56;;;;;;;4.80;2.70;;;;;;;-0.02;70.09;96189.44;5152200;27;20043;-68
2021/12/01 09:46:23;;;;;;;4.82;2.67;;;;;;;-0.04;69.14;96183.69;5150567;27;20171;-67
2021/12/01 09:48:49;;;;;;;6.07;2.63;;;;;;;0.06;70.52;96195.22;5150819;27;20077;-67
2021/12/01 09:51:16;;;;;;;4.70;2.50;;;;;;;0.13;69.24;96196.59;5149218;27;20070;-68
2021/12/01 09:53:44;;;;;;;5.35;2.60;;;;;;;0.09;68.14;96187.72;5150143;27;20482;-67
2021/12/01 09:56:10;;;;;;;4.80;2.88;;;;;;;0.07;69.27;96200.19;5150002;27;20039;-67
2021/12/01 09:58:36;;;;;;;4.32;2.72;;;;;;;-0.06;68.55;96198.78;5132079;27;20069;-66
2021/12/01 10:01:05;;;;;;;2.53;2.20;;;;;;;-0.23;68.58;96198.09;5150228;27;20038;-67
2021/12/01 10:03:31;;;;;;;2.75;2.35;;;;;;;-0.18;69.34;96205.94;5150061;27;20046;-64
2021/12/01 10:06:10;;;;;;;2.90;2.60;;;;;;;-0.24;68.92;96202.53;5150434;27;20038;-67
2021/12/01 10:08:39;;;;;;;2.83;2.15;;;;;;;-0.24;69.18;96202.53;5151228;27;20465;-64
2021/12/01 10:11:10;;;;;;;3.35;2.33;;;;;;;-0.26;68.99;96193.38;5148712;27;20796;-66
2021/12/01 10:13:39;;;;;;;5.68;2.50;;;;;;;-0.25;68.94;96202.75;5149740;27;20042;-66
2021/12/01 10:16:08;;;;;;;3.47;2.40;;;;;;;-0.21;69.54;96206.44;5148600;27;20527;-65
2021/12/01 10:18:46;;;;;;;3.25;2.50;;;;;;;-0.18;69.82;96213.75;5149172;27;20031;-63
2021/12/01 10:21:14;;;;;;;4.80;2.88;;;;;;;-0.25;68.65;96207.97;5148569;27;20555;-61
2021/12/01 10:24:06;;;;;;;4.50;2.40;;;;;;;-0.43;69.70;96213.50;5149364;27;20436;-61
2021/12/01 10:26:36;;;;;;;4.05;2.50;;;;;;;-0.36;70.41;96216.69;5148091;27;20038;-59
2021/12/01 10:29:06;;;;;;;;;;;;;;;-0.45;68.87;96216.34;5147934;27;20428;-58
2021/12/01 10:31:45;;;;;;;3.35;2.50;;;;;;;-0.55;70.30;96239.66;5148475;27;19978;-59
2021/12/01 10:34:31;;;;;;;3.35;2.50;;;;;;;-0.66;69.75;96238.75;5129638;27;20046;-61
2021/12/01 10:37:13;;;;;;;3.20;1.95;;;;;;;-1.25;70.37;96230.72;5148762;27;20060;-60
2021/12/01 10:39:42;;;;;;;3.20;1.95;;;;;;;-1.25;70.81;96228.13;5148461;27;20121;-60
2021/12/01 10:42:11;;;;;;;4.03;2.08;;;;;;;-1.17;70.42;96236.31;5148135;27;20039;-60
2021/12/01 10:44:37;;;;;;;3.67;2.10;;;;;;;-1.31;70.23;96242.88;5149018;27;20047;-61
2021/12/01 10:47:11;;;;;;;2.38;1.90;;;;;;;-1.20;70.65;96243.81;5148418;27;20057;-61
2021/12/01 10:49:42;;;;;;;2.42;1.77;;;;;;;-1.10;71.48;96238.72;5149598;27;20476;-60
2021/12/01 10:52:36;;;;;;;2.55;1.73;;;;;;;-1.05;69.82;96236.22;5132475;27;20049;-65
2021/12/01 10:55:05;;;;;;;2.03;1.50;;;;;;;-1.05;68.75;96244.00;5149884;27;20043;-61
2021/12/01 10:57:31;;;;;;;4.13;1.80;;;;;;;-1.02;69.21;96240.91;5149360;27;20042;-59
2021/12/01 10:59:57;;;;;;;2.97;1.52;;;;;;;-1.04;68.69;96232.56;5150872;27;20046;-61
2021/12/01 11:02:23;;;;;;;3.08;1.52;;;;;;;-1.15;69.36;96251.66;5148203;27;20031;-59
2021/12/01 11:04:50;;;;;;;2.25;1.95;;;;;;;-1.19;68.27;96250.56;5150993;27;20043;-60
2021/12/01 11:07:31;;;;;;;2.67;1.77;;;;;;;-1.38;68.37;96250.06;5151361;27;20065;-60
2021/12/01 11:10:15;;;;;;;3.53;1.70;;;;;;;-1.32;68.27;96249.09;5151315;27;20465;-61
2021/12/01 11:12:42;;;;;;;2.13;1.50;;;;;;;-1.30;68.77;96248.84;5133792;27;20066;-60
2021/12/01 11:15:29;;;;;;;2.13;1.75;;;;;;;-1.30;66.97;96260.03;5152166;27;20050;-61
2021/12/01 11:17:56;;;;;;;1.52;1.42;;;;;;;-1.39;67.03;96267.44;5150735;27;20083;-61
2021/12/01 11:20:38;;;;;;;2.38;1.63;;;;;;;-1.55;67.23;96262.25;5151274;27;20488;-63
2021/12/01 11:23:32;;;;;;;2.42;1.60;;;;;;;-1.61;66.14;96274.38;5153304;27;20049;-62
2021/12/01 11:26:04;;;;;;;2.42;1.48;;;;;;;-1.53;67.52;96270.59;5155802;27;20331;-62
2021/12/01 11:28:32;;;;;;;1.65;1.50;;;;;;;-1.56;66.65;96269.25;5155476;27;20468;-62
2021/12/01 11:31:01;;;;;;;2.53;1.45;;;;;;;-1.55;65.55;96275.25;5154812;27;20050;-61
2021/12/01 11:33:29;;;;;;;1.77;1.48;;;;;;;-1.53;66.16;96283.56;5153853;27;20536;-61
2021/12/01 11:35:57;;;;;;;1.73;1.20;;;;;;;-1.56;66.08;96276.25;5155575;27;20049;-62
2021/12/01 11:38:23;;;;;;;2.10;1.55;;;;;;;-1.58;65.40;96286.91;5155550;27;20554;-62
2021/12/01 11:40:50;;;;;;;2.17;1.48;;;;;;;-1.51;65.55;96284.91;5153919;27;20055;-61
2021/12/01 11:43:21;;;;;;;4.93;1.95;;;;;;;-1.50;65.44;96288.28;5153051;27;20130;-60